Villa Pampanos, Puerto Rico
Current Conditions -  °F | °C
As of 8:50 PM on Monday 24 Nov 2014 (Local Time) from TJPS Reporting Station
Few Clouds Few Clouds  
Wind Chill: 26°   Ceiling: Unl
Heat Index: 28°   Visibility: 10mi
Dew Point: 23°   Wind: 6mph
Humidity: 83%   Direction: 80°E
Pressure: 29.99"   Gusts: NA
Location:  18.0093°N, 66.6209°W
Report Text: TJPS 250050Z 08005KT 10SM FEW020 26/23 A2999
Loading
Personal Weather Stations






























Interactive Weather Map New forecast layout! Learn more

10-Day Weather Forecast

Advertisements
Track Severe Weather on mobile